Time;durP1;ratioP1;P1;durP2;ratioP2;P2;SDS_P1;SDS_P2;PMS_P1;PMS_P2;Temp;Humidity;BMP_temperature;BMP_pressure;BME280_temperature;BME280_humidity;BME280_pressure;Samples;Min_cycle;Max_cycle;Signal;HPM_P1;HPM_P2
2022/03/20 00:05:29;;;;;;;41.08;18.23;;;4.10;99.90;;;;;;20862658;28;20494;-72
2022/03/20 00:15:30;;;;;;;38.42;17.75;;;4.40;99.90;;;;;;20857092;28;20082;-72
2022/03/20 00:25:32;;;;;;;39.25;19.15;;;4.60;99.90;;;;;;20836574;28;20033;-72
2022/03/20 00:35:33;;;;;;;36.97;17.83;;;4.40;99.90;;;;;;20821412;28;20033;-72
2022/03/20 00:45:35;;;;;;;38.28;17.98;;;4.60;99.90;;;;;;20828611;28;20435;-72
2022/03/20 00:55:36;;;;;;;44.40;19.13;;;4.50;99.90;;;;;;20863287;28;20053;-72
2022/03/20 01:05:36;;;;;;;42.00;18.73;;;4.40;99.90;;;;;;20864098;28;20040;-72
2022/03/20 01:15:37;;;;;;;44.37;19.63;;;4.20;99.90;;;;;;20908069;28;20040;-72
2022/03/20 01:25:40;;;;;;;49.97;21.90;;;4.10;99.90;;;;;;20919820;28;20369;-72
2022/03/20 01:35:41;;;;;;;48.30;20.08;;;3.60;99.90;;;;;;20918809;28;20039;-72
2022/03/20 01:45:42;;;;;;;40.70;20.13;;;3.50;99.90;;;;;;20916788;28;20029;-71
2022/03/20 01:55:44;;;;;;;42.72;20.42;;;3.30;99.90;;;;;;20916621;28;20562;-72
2022/03/20 02:05:45;;;;;;;38.63;18.92;;;3.20;99.90;;;;;;20916745;28;20482;-72
2022/03/20 02:15:46;;;;;;;38.40;19.67;;;3.30;99.90;;;;;;20915974;28;20037;-72
2022/03/20 02:25:49;;;;;;;42.33;20.13;;;3.30;99.90;;;;;;20914870;28;20044;-72
2022/03/20 02:35:53;;;;;;;43.97;20.35;;;3.40;99.90;;;;;;20913151;28;20483;-72
2022/03/20 02:45:54;;;;;;;43.55;20.13;;;3.60;99.90;;;;;;20913908;28;20442;-72
2022/03/20 02:55:54;;;;;;;;;;;3.70;99.90;;;;;;20913157;28;20033;-72
2022/03/20 03:05:56;;;;;;;48.77;20.43;;;3.80;99.90;;;;;;20912117;28;20007;-72
2022/03/20 03:15:59;;;;;;;46.65;20.52;;;3.90;99.90;;;;;;20911099;28;20685;-72
2022/03/20 03:26:00;;;;;;;41.92;18.90;;;3.90;99.90;;;;;;20893676;28;20037;-72
2022/03/20 03:36:01;;;;;;;41.92;19.48;;;4.00;99.90;;;;;;20867210;28;20496;-72
2022/03/20 03:46:02;;;;;;;44.05;20.23;;;3.90;99.90;;;;;;20827249;28;20053;-72
2022/03/20 03:56:03;;;;;;;;;;;3.90;99.90;;;;;;20826319;28;20041;-72
2022/03/20 04:06:04;;;;;;;40.67;19.73;;;3.80;99.90;;;;;;20825647;28;19913;-72
2022/03/20 04:16:07;;;;;;;;;;;3.80;99.90;;;;;;20825614;28;20396;-72
2022/03/20 04:26:08;;;;;;;40.28;20.90;;;3.80;99.90;;;;;;20823521;28;19913;-72
2022/03/20 04:36:09;;;;;;;;;;;3.80;99.90;;;;;;20824715;28;20035;-72
2022/03/20 04:46:12;;;;;;;39.42;18.73;;;3.80;99.90;;;;;;20824193;28;19909;-72
2022/03/20 05:06:32;;;;;;;44.45;20.55;;;3.70;99.90;;;;;;20839362;28;20041;-72
2022/03/20 05:16:33;;;;;;;;;;;3.60;99.90;;;;;;20838901;28;20037;-72
2022/03/20 05:26:33;;;;;;;39.73;19.03;;;3.70;99.90;;;;;;20835533;28;19909;-72
2022/03/20 05:36:34;;;;;;;45.40;20.67;;;3.80;99.90;;;;;;20836718;28;20363;-72
2022/03/20 05:46:35;;;;;;;;;;;3.70;99.90;;;;;;20836637;28;20319;-72
2022/03/20 06:06:58;;;;;;;37.97;19.85;;;3.70;99.90;;;;;;20832009;28;20794;-72
2022/03/20 06:16:58;;;;;;;40.10;19.90;;;3.70;99.90;;;;;;20865492;28;20044;-72
2022/03/20 06:26:59;;;;;;;;;;;3.80;99.90;;;;;;20875035;28;20025;-72
2022/03/20 06:37:00;;;;;;;40.60;20.33;;;3.80;99.90;;;;;;20872099;28;19913;-73
2022/03/20 06:47:02;;;;;;;;;;;4.00;99.90;;;;;;20842296;28;20056;-72
2022/03/20 06:57:03;;;;;;;45.38;20.58;;;4.20;99.90;;;;;;20840265;28;19917;-73
2022/03/20 07:07:04;;;;;;;43.92;20.33;;;4.40;99.90;;;;;;20827685;28;20033;-73
2022/03/20 07:17:10;;;;;;;40.75;20.30;;;4.50;99.90;;;;;;20833246;28;20044;-73
2022/03/20 07:37:32;;;;;;;41.92;21.10;;;4.60;99.90;;;;;;20859885;28;20025;-73
2022/03/20 07:47:33;;;;;;;43.35;21.33;;;4.70;99.90;;;;;;20864868;28;20025;-73
2022/03/20 07:57:41;;;;;;;47.00;22.65;;;4.80;99.90;;;;;;20864059;28;20391;-72
2022/03/20 08:07:43;;;;;;;40.28;20.52;;;5.10;99.90;;;;;;20862006;28;20506;-73
2022/03/20 08:17:46;;;;;;;42.58;20.67;;;5.80;99.90;;;;;;20857846;28;20032;-73
2022/03/20 08:27:52;;;;;;;44.05;21.08;;;6.60;99.90;;;;;;20851995;28;20042;-73
2022/03/20 08:37:53;;;;;;;46.97;22.48;;;7.50;99.90;;;;;;20847812;28;20122;-74
2022/03/20 08:47:54;;;;;;;38.78;20.80;;;8.40;99.90;;;;;;20854199;28;20044;-74
2022/03/20 08:57:54;;;;;;;40.47;20.47;;;9.70;99.90;;;;;;20861192;28;20037;-74
2022/03/20 09:07:57;;;;;;;38.93;20.70;;;11.30;99.90;;;;;;20858328;28;20041;-74
2022/03/20 09:28:18;;;;;;;36.58;19.83;;;12.10;99.90;;;;;;20861161;28;20028;-73
2022/03/20 09:38:20;;;;;;;35.73;19.80;;;11.60;99.90;;;;;;20855596;28;20036;-74
2022/03/20 09:48:21;;;;;;;;;;;11.90;99.90;;;;;;20849567;28;20120;-74
2022/03/20 09:58:27;;;;;;;32.72;18.65;;;10.10;99.90;;;;;;20857833;28;19967;-74
2022/03/20 10:08:28;;;;;;;40.17;19.63;;;12.30;99.90;;;;;;20857638;28;20133;-74
2022/03/20 10:18:29;;;;;;;32.20;19.07;;;13.80;99.90;;;;;;20823499;28;20034;-74
2022/03/20 10:28:44;;;;;;;43.27;20.90;;;15.00;99.90;;;;;;20813562;28;20128;-72
2022/03/20 10:38:47;;;;;;;32.88;18.88;;;16.60;99.90;;;;;;20844249;28;20391;-72
2022/03/20 10:48:54;;;;;;;30.48;18.27;;;16.60;99.90;;;;;;20849950;28;20036;-72
2022/03/20 10:58:55;;;;;;;29.23;17.90;;;16.80;99.90;;;;;;20851856;28;20037;-75
2022/03/20 11:08:57;;;;;;;31.80;18.23;;;18.00;99.90;;;;;;20847966;28;20033;-74
2022/03/20 11:18:59;;;;;;;31.57;17.43;;;17.60;99.90;;;;;;20848641;28;20395;-72
2022/03/20 11:29:04;;;;;;;31.10;17.08;;;17.90;98.80;;;;;;20849518;28;20489;-72
2022/03/20 11:39:10;;;;;;;25.77;14.45;;;18.70;98.70;;;;;;20870832;28;20041;-73
2022/03/20 11:49:14;;;;;;;24.00;15.15;;;19.40;97.30;;;;;;20879852;28;20090;-74
2022/03/20 11:59:45;;;;;;;23.60;14.70;;;20.40;91.20;;;;;;20912059;28;20388;-73
2022/03/20 12:09:52;;;;;;;22.60;14.05;;;18.50;93.60;;;;;;20883462;28;20119;-73
2022/03/20 12:19:53;;;;;;;23.52;12.82;;;20.10;90.30;;;;;;20881894;28;20044;-73
2022/03/20 12:30:13;;;;;;;24.07;14.13;;;21.20;85.00;;;;;;20864699;28;20037;-73
2022/03/20 12:40:25;;;;;;;21.58;12.40;;;21.00;85.40;;;;;;20879702;28;20102;-73
2022/03/20 12:50:34;;;;;;;21.47;12.80;;;20.70;88.50;;;;;;20866267;28;20056;-74
2022/03/20 13:00:38;;;;;;;22.27;12.65;;;20.10;85.70;;;;;;20881558;28;20621;-74
2022/03/20 13:10:40;;;;;;;20.17;11.95;;;21.20;83.50;;;;;;20905539;28;20098;-74
2022/03/20 13:20:43;;;;;;;22.77;13.13;;;20.10;84.50;;;;;;20920958;28;20082;-73
2022/03/20 13:30:45;;;;;;;24.05;11.52;;;19.80;85.10;;;;;;20902658;28;20037;-73
2022/03/20 13:40:46;;;;;;;18.15;10.25;;;20.10;82.20;;;;;;20899051;28;20036;-73
2022/03/20 13:50:49;;;;;;;24.43;11.17;;;21.00;79.50;;;;;;20896058;28;20042;-73
2022/03/20 14:01:01;;;;;;;23.15;10.05;;;20.50;79.50;;;;;;20879160;28;20120;-73
2022/03/20 14:11:05;;;;;;;18.05;10.05;;;20.50;82.10;;;;;;20878324;28;20037;-73
2022/03/20 14:21:16;;;;;;;16.17;9.23;;;22.00;78.10;;;;;;20875918;28;20121;-73
2022/03/20 14:41:53;;;;;;;18.08;7.90;;;20.30;78.30;;;;;;20884300;28;20299;-73
2022/03/20 14:51:55;;;;;;;16.55;8.00;;;21.70;75.10;;;;;;20886636;28;20044;-74
2022/03/20 15:01:56;;;;;;;18.27;8.00;;;20.80;75.70;;;;;;20888423;28;20731;-73
2022/03/20 15:11:57;;;;;;;16.03;6.77;;;20.60;74.30;;;;;;20871970;28;20041;-73
2022/03/20 15:21:59;;;;;;;19.27;7.90;;;20.90;75.60;;;;;;20887269;28;20037;-73
2022/03/20 15:32:01;;;;;;;19.30;8.43;;;19.70;73.90;;;;;;20889917;28;20037;-74
2022/03/20 15:42:03;;;;;;;17.73;7.43;;;20.30;75.30;;;;;;20888534;28;20694;-73
2022/03/20 15:52:04;;;;;;;13.23;6.30;;;18.20;75.90;;;;;;20889443;28;20025;-73
2022/03/20 16:02:06;;;;;;;18.90;6.60;;;19.70;76.50;;;;;;20887063;28;20040;-73
2022/03/20 16:12:07;;;;;;;12.82;5.97;;;19.40;78.00;;;;;;20927469;28;20116;-74
2022/03/20 16:22:08;;;;;;;11.93;6.47;;;18.50;77.20;;;;;;20886895;28;20041;-73
2022/03/20 16:32:13;;;;;;;13.50;5.33;;;17.80;77.30;;;;;;20863683;28;20523;-74
2022/03/20 16:42:15;;;;;;;16.55;5.88;;;17.20;79.90;;;;;;20880732;28;20075;-73
2022/03/20 16:52:18;;;;;;;21.55;5.30;;;16.90;80.00;;;;;;20892691;28;20037;-74
2022/03/20 17:02:19;;;;;;;14.60;5.18;;;16.50;81.00;;;;;;20909402;28;20047;-73
2022/03/20 17:12:20;;;;;;;8.70;4.63;;;16.30;83.80;;;;;;20916226;28;20124;-75
2022/03/20 17:22:21;;;;;;;12.30;5.23;;;16.00;87.60;;;;;;20917261;28;20487;-75
2022/03/20 17:32:22;;;;;;;18.55;4.75;;;15.90;86.60;;;;;;20919658;28;20039;-75
2022/03/20 17:42:23;;;;;;;11.67;4.90;;;13.40;94.00;;;;;;20919165;28;20071;-74
2022/03/20 17:52:25;;;;;;;12.27;5.63;;;11.40;96.40;;;;;;20917740;28;20135;-74
2022/03/20 18:12:47;;;;;;;14.60;5.20;;;11.40;96.90;;;;;;20916170;28;20045;-75
2022/03/20 18:22:49;;;;;;;15.77;5.10;;;11.20;98.10;;;;;;20914533;28;20056;-74
2022/03/20 18:32:50;;;;;;;12.98;5.07;;;11.60;95.70;;;;;;20913362;28;20045;-76
2022/03/20 18:42:52;;;;;;;22.00;5.80;;;11.60;95.20;;;;;;20913834;28;20560;-75
2022/03/20 18:52:53;;;;;;;15.90;6.40;;;11.50;96.10;;;;;;20895269;28;20037;-76
2022/03/20 19:02:53;;;;;;;14.13;7.10;;;11.20;96.50;;;;;;20912684;28;20083;-74
2022/03/20 19:12:55;;;;;;;11.07;5.80;;;10.80;97.60;;;;;;20911555;28;20036;-76
2022/03/20 19:22:56;;;;;;;12.10;5.60;;;10.20;99.60;;;;;;20918869;28;20395;-75
2022/03/20 19:32:56;;;;;;;14.73;6.37;;;9.80;99.90;;;;;;20910773;28;20033;-77
2022/03/20 19:42:57;;;;;;;16.53;6.77;;;8.90;99.90;;;;;;20888431;28;20032;-75
2022/03/20 19:52:59;;;;;;;16.03;6.97;;;8.90;99.90;;;;;;20888842;28;20079;-76
2022/03/20 20:02:59;;;;;;;21.08;7.18;;;8.10;99.90;;;;;;20905667;28;20048;-76
2022/03/20 20:14:44;;;;;;;17.20;7.83;;;7.60;99.90;;;;;;20967080;28;20502;-76
2022/03/20 20:23:21;;;;;;;17.13;7.60;;;7.50;99.90;;;;;;20886691;28;20036;-75
2022/03/20 20:33:22;;;;;;;20.87;7.63;;;7.40;99.90;;;;;;20868955;28;20041;-75
2022/03/20 20:43:24;;;;;;;17.60;6.77;;;6.70;99.90;;;;;;20843698;28;20083;-75
2022/03/20 20:53:25;;;;;;;16.90;6.80;;;7.60;99.90;;;;;;20868545;28;20675;-75
2022/03/20 21:03:26;;;;;;;;;;;8.30;99.90;;;;;;20887413;28;20759;-76
2022/03/20 21:13:29;;;;;;;18.73;7.67;;;8.20;99.90;;;;;;20867611;28;19997;-75
2022/03/20 21:23:31;;;;;;;15.85;6.35;;;7.90;99.90;;;;;;20885407;28;20290;-75
2022/03/20 21:33:32;;;;;;;;;;;7.90;99.90;;;;;;20905067;28;20491;-75
2022/03/20 21:43:33;;;;;;;21.95;7.57;;;7.70;99.90;;;;;;20911078;28;19982;-75
2022/03/20 21:53:33;;;;;;;16.13;7.87;;;8.10;99.90;;;;;;20918276;28;20025;-76
2022/03/20 22:03:34;;;;;;;17.97;7.27;;;8.30;99.90;;;;;;20901677;28;20029;-76
2022/03/20 22:13:35;;;;;;;13.27;6.67;;;7.80;99.90;;;;;;20898423;28;20033;-76
2022/03/20 22:23:36;;;;;;;15.53;7.40;;;7.50;99.90;;;;;;20916170;28;20430;-76
2022/03/20 22:33:37;;;;;;;19.47;6.87;;;6.80;99.90;;;;;;20915001;28;20506;-76
2022/03/20 22:43:38;;;;;;;16.55;6.85;;;6.70;99.90;;;;;;20913502;28;20033;-76
2022/03/20 22:53:39;;;;;;;17.63;7.13;;;5.90;99.90;;;;;;20915984;28;20402;-76
2022/03/20 23:03:40;;;;;;;16.50;7.43;;;5.60;99.90;;;;;;20912550;28;20554;-76
2022/03/20 23:13:41;;;;;;;14.37;8.00;;;5.50;99.90;;;;;;20877563;28;20036;-75
2022/03/20 23:23:42;;;;;;;22.23;7.68;;;5.30;99.90;;;;;;20911165;28;20491;-76
2022/03/20 23:33:44;;;;;;;14.25;7.57;;;5.00;99.90;;;;;;20910477;28;20024;-76
2022/03/20 23:43:45;;;;;;;18.95;8.20;;;4.90;99.90;;;;;;20892002;28;20041;-76
2022/03/20 23:53:46;;;;;;;19.20;9.07;;;4.90;99.90;;;;;;20903405;28;20043;-76
